Time;durP1;ratioP1;P1;durP2;ratioP2;P2;SDS_P1;SDS_P2;PMS_P1;PMS_P2;Temp;Humidity;BMP_temperature;BMP_pressure;BME280_temperature;BME280_humidity;BME280_pressure;Samples;Min_cycle;Max_cycle;Signal;HPM_P1;HPM_P2
2024/02/05 00:00:04;;;;;;;4.00;1.50;;;22.40;56.90;;;;;;6123212;22;89838;-65
2024/02/05 00:02:30;;;;;;;3.65;1.48;;;22.40;56.90;;;;;;6152251;22;88664;-66
2024/02/05 00:04:56;;;;;;;1.77;1.40;;;22.40;56.80;;;;;;6145410;22;87117;-66
2024/02/05 00:07:22;;;;;;;1.65;1.10;;;22.40;56.90;;;;;;6150145;22;87009;-65
2024/02/05 00:09:48;;;;;;;2.67;1.42;;;22.30;56.90;;;;;;6121875;22;89028;-70
2024/02/05 00:12:14;;;;;;;2.83;1.42;;;22.30;57.00;;;;;;6116858;22;88454;-70
2024/02/05 00:14:41;;;;;;;2.20;1.20;;;22.30;57.00;;;;;;6152271;22;87356;-65
2024/02/05 00:17:06;;;;;;;4.07;1.45;;;22.30;57.20;;;;;;6124229;22;87649;-66
2024/02/05 00:19:32;;;;;;;2.45;1.25;;;22.30;57.00;;;;;;6147814;22;87918;-65
2024/02/05 00:21:58;;;;;;;2.67;1.52;;;22.20;57.00;;;;;;6121687;22;87369;-68
2024/02/05 00:24:24;;;;;;;3.78;1.27;;;22.20;57.00;;;;;;6145174;22;88303;-69
2024/02/05 00:26:50;;;;;;;2.78;1.45;;;22.20;56.90;;;;;;6152433;22;87557;-66
2024/02/05 00:29:16;;;;;;;3.55;1.55;;;22.20;56.90;;;;;;6117212;22;88602;-67
2024/02/05 00:31:42;;;;;;;3.20;1.60;;;22.20;57.00;;;;;;6116140;22;88866;-65
2024/02/05 00:34:07;;;;;;;4.05;1.50;;;22.10;57.00;;;;;;6150582;22;87468;-67
2024/02/05 00:36:33;;;;;;;2.45;1.38;;;22.10;56.90;;;;;;6141362;22;87858;-67
2024/02/05 00:38:59;;;;;;;3.03;1.33;;;22.10;57.00;;;;;;6122084;22;88766;-64
2024/02/05 00:41:25;;;;;;;6.25;1.55;;;22.10;57.00;;;;;;6152606;22;87039;-66
2024/02/05 00:43:50;;;;;;;2.58;1.42;;;22.10;57.10;;;;;;6148822;22;87743;-65
2024/02/05 00:46:22;;;;;;;1.73;1.38;;;22.00;57.00;;;;;;6150409;22;87364;-66
2024/02/05 00:48:52;;;;;;;1.67;1.10;;;22.00;57.30;;;;;;6122115;22;91333;-67
2024/02/05 00:51:18;;;;;;;2.72;1.55;;;22.00;57.20;;;;;;6124665;22;87840;-66
2024/02/05 00:53:44;;;;;;;3.05;1.50;;;22.00;57.20;;;;;;6151225;22;87086;-67
2024/02/05 00:56:09;;;;;;;2.35;1.33;;;22.00;57.20;;;;;;6150936;22;87447;-66
2024/02/05 00:58:35;;;;;;;2.35;1.50;;;22.00;57.20;;;;;;6150153;22;87725;-66
2024/02/05 01:01:01;;;;;;;2.50;1.08;;;21.90;57.10;;;;;;6123172;22;89613;-68
2024/02/05 01:03:27;;;;;;;2.42;1.25;;;21.90;57.20;;;;;;6150791;22;87165;-67
2024/02/05 01:05:52;;;;;;;2.63;1.60;;;21.90;57.10;;;;;;6123603;22;87019;-67
2024/02/05 01:08:18;;;;;;;1.52;0.95;;;21.90;57.10;;;;;;6141705;22;88039;-66
2024/02/05 01:11:00;;;;;;;2.38;1.10;;;21.90;57.20;;;;;;6148029;22;87769;-67
2024/02/05 01:13:26;;;;;;;2.30;1.42;;;21.90;57.30;;;;;;6121713;22;89072;-67
2024/02/05 01:15:52;;;;;;;2.50;1.20;;;21.90;57.10;;;;;;6122833;22;87805;-65
2024/02/05 01:18:19;;;;;;;2.88;1.88;;;21.80;57.30;;;;;;6122742;22;88915;-65
2024/02/05 01:20:45;;;;;;;2.97;1.60;;;21.80;57.20;;;;;;6151356;22;86983;-68
2024/02/05 01:23:10;;;;;;;2.65;1.30;;;21.80;57.30;;;;;;6150509;22;87432;-65
2024/02/05 01:25:36;;;;;;;2.05;1.08;;;21.80;57.40;;;;;;6150318;22;87203;-66
2024/02/05 01:28:03;;;;;;;2.47;1.40;;;21.80;57.40;;;;;;6151088;22;87530;-65
2024/02/05 01:30:29;;;;;;;2.15;1.27;;;21.80;57.20;;;;;;6123810;22;87143;-69
2024/02/05 01:32:56;;;;;;;1.65;0.98;;;21.70;57.30;;;;;;6121365;22;86994;-66
2024/02/05 01:35:23;;;;;;;2.60;1.30;;;21.80;57.30;;;;;;6123905;22;87955;-66
2024/02/05 01:37:53;;;;;;;2.30;1.20;;;21.70;57.10;;;;;;6117793;22;89268;-67
2024/02/05 01:40:19;;;;;;;2.33;1.13;;;21.70;57.30;;;;;;6123677;22;88162;-66
2024/02/05 01:42:45;;;;;;;3.00;1.13;;;21.70;57.20;;;;;;6122429;22;87141;-69
2024/02/05 01:45:11;;;;;;;3.20;1.40;;;21.70;57.30;;;;;;6145892;22;87146;-66
2024/02/05 01:47:38;;;;;;;4.75;1.50;;;21.70;57.40;;;;;;6124202;22;88128;-67
2024/02/05 01:50:06;;;;;;;1.35;0.90;;;21.70;57.30;;;;;;6149751;22;88881;-66
2024/02/05 01:52:36;;;;;;;3.33;1.73;;;21.60;57.10;;;;;;6146353;22;87377;-66
2024/02/05 01:55:05;;;;;;;2.90;1.52;;;21.60;57.20;;;;;;6151758;22;86851;-65
2024/02/05 01:57:31;;;;;;;;;;;21.60;57.30;;;;;;6152127;22;88162;-67
2024/02/05 01:59:59;;;;;;;2.63;1.10;;;21.60;57.30;;;;;;6152712;22;87167;-66
2024/02/05 02:02:27;;;;;;;4.47;1.30;;;21.60;57.20;;;;;;6152755;22;87717;-66
2024/02/05 02:04:54;;;;;;;2.33;1.42;;;21.60;57.30;;;;;;6124851;22;87380;-66
2024/02/05 02:07:19;;;;;;;1.63;1.20;;;21.60;57.40;;;;;;6121332;22;88227;-66
2024/02/05 02:09:47;;;;;;;1.90;1.10;;;21.60;57.30;;;;;;6150998;22;87767;-65
2024/02/05 02:12:14;;;;;;;2.28;1.30;;;21.60;57.40;;;;;;6099382;22;87096;-68
2024/02/05 02:14:39;;;;;;;2.55;1.08;;;21.50;57.20;;;;;;6152364;22;87611;-65
2024/02/05 02:17:05;;;;;;;1.95;1.20;;;21.50;57.30;;;;;;6152555;22;88128;-66
2024/02/05 02:19:45;;;;;;;3.17;1.45;;;21.50;57.20;;;;;;6151456;22;87640;-68
2024/02/05 02:22:36;;;;;;;3.85;1.40;;;21.50;57.40;;;;;;6150913;22;87276;-64
2024/02/05 02:25:02;;;;;;;2.25;1.33;;;21.50;57.30;;;;;;6148114;22;87462;-67
2024/02/05 02:27:28;;;;;;;1.98;0.90;;;21.50;57.20;;;;;;6145610;22;89794;-67
2024/02/05 02:29:55;;;;;;;3.03;1.42;;;21.50;57.30;;;;;;6151865;22;89089;-66
2024/02/05 02:32:27;;;;;;;2.78;1.60;;;21.40;57.30;;;;;;6119410;22;87634;-67
2024/02/05 02:34:57;;;;;;;2.47;1.20;;;21.50;57.90;;;;;;6150508;22;87577;-65
2024/02/05 02:37:29;;;;;;;2.35;1.67;;;21.40;57.20;;;;;;6146529;22;88236;-65
2024/02/05 02:40:01;;;;;;;2.42;1.38;;;21.40;57.20;;;;;;6149348;22;87656;-66
2024/02/05 02:42:28;;;;;;;2.08;1.20;;;21.40;57.20;;;;;;6150566;22;86879;-68
2024/02/05 02:44:55;;;;;;;2.22;1.08;;;21.40;57.20;;;;;;6124734;22;88524;-67
2024/02/05 02:47:21;;;;;;;3.10;1.45;;;21.40;57.20;;;;;;6150370;22;91388;-66
2024/02/05 02:49:48;;;;;;;1.80;1.20;;;21.40;57.30;;;;;;6147410;22;87390;-67
2024/02/05 02:52:13;;;;;;;1.25;1.13;;;21.40;57.30;;;;;;6150678;22;87997;-67
2024/02/05 02:54:39;;;;;;;2.00;1.33;;;21.40;57.30;;;;;;6151250;22;87667;-66
2024/02/05 02:57:05;;;;;;;3.35;1.42;;;21.40;57.40;;;;;;6152251;22;89205;-68
2024/02/05 02:59:31;;;;;;;2.03;1.38;;;21.30;57.30;;;;;;6152121;22;87787;-65
2024/02/05 03:01:57;;;;;;;1.98;1.10;;;21.30;57.20;;;;;;6151581;22;87315;-65
2024/02/05 03:04:22;;;;;;;1.42;1.10;;;21.30;57.20;;;;;;6122605;22;87979;-69
2024/02/05 03:06:48;;;;;;;2.75;1.67;;;21.30;57.20;;;;;;6124255;22;88777;-67
2024/02/05 03:09:41;;;;;;;1.77;1.27;;;21.30;57.40;;;;;;6150383;22;87388;-67
2024/02/05 03:12:07;;;;;;;2.97;1.50;;;21.30;57.30;;;;;;6121096;22;86944;-65
2024/02/05 03:14:51;;;;;;;1.85;1.25;;;21.30;57.30;;;;;;6123741;22;89719;-65
2024/02/05 03:17:17;;;;;;;3.00;1.23;;;21.30;57.30;;;;;;6148780;22;88945;-66
2024/02/05 03:19:43;;;;;;;2.00;1.27;;;21.30;57.40;;;;;;6147943;22;88682;-68
2024/02/05 03:22:10;;;;;;;1.70;1.10;;;21.30;57.30;;;;;;6151163;22;87070;-65
2024/02/05 03:24:36;;;;;;;2.15;1.10;;;21.30;57.30;;;;;;6150900;22;87913;-68
2024/02/05 03:27:03;;;;;;;2.40;1.20;;;21.30;57.30;;;;;;6151231;22;87604;-65
2024/02/05 03:29:29;;;;;;;1.70;1.40;;;21.30;57.20;;;;;;6151336;22;87240;-69
2024/02/05 03:31:55;;;;;;;2.72;1.38;;;21.30;57.30;;;;;;6123357;22;87516;-68
2024/02/05 03:34:21;;;;;;;2.08;1.27;;;21.20;57.30;;;;;;6123411;22;86338;-67
2024/02/05 03:36:46;;;;;;;2.05;1.10;;;21.20;57.30;;;;;;6148920;22;88579;-65
2024/02/05 03:39:14;;;;;;;1.85;1.38;;;21.20;57.20;;;;;;6098341;22;88248;-67
2024/02/05 03:41:40;;;;;;;2.40;1.30;;;21.20;57.30;;;;;;6124483;22;88108;-68
2024/02/05 03:44:06;;;;;;;3.13;1.35;;;21.20;57.30;;;;;;6151336;22;87259;-69
2024/02/05 03:46:31;;;;;;;2.45;1.40;;;21.20;57.30;;;;;;6151068;22;88242;-65
2024/02/05 03:48:58;;;;;;;2.17;1.42;;;21.20;57.30;;;;;;6123059;22;88779;-66
2024/02/05 03:51:24;;;;;;;3.45;1.13;;;21.20;57.30;;;;;;6149022;22;87452;-65
2024/02/05 03:53:52;;;;;;;4.32;1.27;;;21.20;57.30;;;;;;6098858;22;87403;-66
2024/02/05 03:56:21;;;;;;;2.47;1.27;;;21.20;57.40;;;;;;6150010;22;87983;-68
2024/02/05 03:58:50;;;;;;;3.35;1.33;;;21.10;57.30;;;;;;6150671;22;87911;-66
2024/02/05 04:01:29;;;;;;;;;;;21.20;57.30;;;;;;6150856;22;87499;-67
2024/02/05 04:03:55;;;;;;;1.85;1.08;;;21.10;57.30;;;;;;6124789;22;91720;-65
2024/02/05 04:06:20;;;;;;;2.50;1.20;;;21.10;57.20;;;;;;6152011;22;89004;-68
2024/02/05 04:08:46;;;;;;;2.42;1.55;;;21.10;57.40;;;;;;6125177;22;89919;-65
2024/02/05 04:11:13;;;;;;;2.00;1.20;;;21.10;57.30;;;;;;6151083;22;87408;-67
2024/02/05 04:13:38;;;;;;;2.47;1.10;;;21.10;57.30;;;;;;6150637;22;87502;-69
2024/02/05 04:16:07;;;;;;;2.97;1.20;;;21.10;57.30;;;;;;6152169;22;87994;-66
2024/02/05 04:18:33;;;;;;;2.35;1.27;;;21.10;57.30;;;;;;6119039;22;88219;-67
2024/02/05 04:21:03;;;;;;;2.85;1.13;;;21.10;57.30;;;;;;6117560;22;86988;-67
2024/02/05 04:23:30;;;;;;;1.95;1.50;;;21.10;57.30;;;;;;6152282;22;86699;-67
2024/02/05 04:25:56;;;;;;;1.40;1.20;;;21.10;57.90;;;;;;6124151;22;88983;-67
2024/02/05 04:28:23;;;;;;;1.35;1.20;;;21.10;57.30;;;;;;6120173;22;88723;-65
2024/02/05 04:30:51;;;;;;;1.75;1.00;;;21.10;57.30;;;;;;6099182;22;88480;-66
2024/02/05 04:33:17;;;;;;;3.33;1.43;;;21.10;57.20;;;;;;6122446;22;87425;-66
2024/02/05 04:35:44;;;;;;;2.00;1.20;;;21.10;57.20;;;;;;6151355;22;87970;-65
2024/02/05 04:38:10;;;;;;;2.20;1.33;;;21.00;57.20;;;;;;6151605;22;87652;-66
2024/02/05 04:40:37;;;;;;;2.45;1.20;;;21.00;57.40;;;;;;6123891;22;87626;-68
2024/02/05 04:43:03;;;;;;;1.48;1.02;;;21.00;57.30;;;;;;6122952;22;88092;-65
2024/02/05 04:45:29;;;;;;;2.20;1.17;;;21.00;57.30;;;;;;6150374;22;87879;-68
2024/02/05 04:47:56;;;;;;;2.05;1.10;;;21.00;57.10;;;;;;6151194;22;87676;-63
2024/02/05 04:50:22;;;;;;;1.80;1.02;;;21.00;57.10;;;;;;6124597;22;88305;-65
2024/02/05 04:52:48;;;;;;;1.67;1.17;;;21.00;57.30;;;;;;6150626;22;87454;-65
2024/02/05 04:55:14;;;;;;;1.90;0.95;;;21.00;57.30;;;;;;6149601;22;88789;-68
2024/02/05 04:57:46;;;;;;;2.08;1.35;;;21.00;57.20;;;;;;6150990;22;88698;-66
2024/02/05 05:00:12;;;;;;;2.47;1.20;;;21.00;57.20;;;;;;6149793;22;87166;-65
2024/02/05 05:02:38;;;;;;;2.03;1.70;;;21.00;57.00;;;;;;6124237;22;87716;-65
2024/02/05 05:05:04;;;;;;;2.40;1.27;;;21.00;57.00;;;;;;6122752;22;88100;-65
2024/02/05 05:07:30;;;;;;;3.65;1.52;;;21.00;57.20;;;;;;6144605;22;87686;-69
2024/02/05 05:09:55;;;;;;;3.22;1.33;;;21.00;57.20;;;;;;6147837;22;87469;-65
2024/02/05 05:12:21;;;;;;;2.22;1.40;;;21.00;57.30;;;;;;6123577;22;87561;-68
2024/02/05 05:14:47;;;;;;;1.42;1.20;;;20.90;57.20;;;;;;6124057;22;88757;-65
2024/02/05 05:17:14;;;;;;;3.25;1.27;;;20.90;57.10;;;;;;6122927;22;87282;-64
2024/02/05 05:19:39;;;;;;;2.45;1.10;;;20.90;57.00;;;;;;6123050;22;88190;-66
2024/02/05 05:22:05;;;;;;;2.85;1.20;;;20.90;57.30;;;;;;6122405;22;87608;-67
2024/02/05 05:24:31;;;;;;;1.98;1.52;;;20.90;57.10;;;;;;6149810;22;88359;-65
2024/02/05 05:26:58;;;;;;;2.22;1.30;;;20.90;57.10;;;;;;6150726;22;87557;-65
2024/02/05 05:29:24;;;;;;;2.20;1.52;;;20.90;57.20;;;;;;6152954;22;87188;-65
2024/02/05 05:31:51;;;;;;;2.35;1.27;;;20.90;57.10;;;;;;6124365;22;87153;-65
2024/02/05 05:34:17;;;;;;;2.40;1.17;;;20.90;57.00;;;;;;6149163;22;88563;-70
2024/02/05 05:36:43;;;;;;;3.55;1.95;;;20.90;57.00;;;;;;6152282;22;89920;-65
2024/02/05 05:39:09;;;;;;;2.08;1.20;;;20.90;57.10;;;;;;6119017;22;87496;-66
2024/02/05 05:41:35;;;;;;;2.10;1.45;;;20.90;57.10;;;;;;6150853;22;88464;-65
2024/02/05 05:44:02;;;;;;;3.72;1.27;;;20.80;57.00;;;;;;6148790;22;89311;-67
2024/02/05 05:46:28;;;;;;;4.03;1.45;;;20.80;57.10;;;;;;6150127;22;89667;-67
2024/02/05 05:48:56;;;;;;;2.28;1.20;;;20.80;56.90;;;;;;6145441;22;87247;-66
2024/02/05 05:51:42;;;;;;;3.00;1.40;;;20.80;57.10;;;;;;6149127;22;87928;-66
2024/02/05 05:54:08;;;;;;;2.58;1.17;;;20.80;57.10;;;;;;6123046;22;88769;-65
2024/02/05 05:56:36;;;;;;;2.95;1.40;;;20.80;57.00;;;;;;6124901;22;88384;-65
2024/02/05 05:59:02;;;;;;;2.95;1.23;;;20.80;57.00;;;;;;6116530;22;87306;-69
2024/02/05 06:01:28;;;;;;;2.25;1.80;;;20.80;57.00;;;;;;6124790;22;86889;-66
2024/02/05 06:03:55;;;;;;;1.90;1.20;;;20.80;57.00;;;;;;6151685;22;87701;-66
2024/02/05 06:06:22;;;;;;;1.40;1.08;;;20.80;56.90;;;;;;6120748;22;88565;-67
2024/02/05 06:08:48;;;;;;;2.80;1.27;;;20.80;57.00;;;;;;6151925;22;88412;-65
2024/02/05 06:11:14;;;;;;;2.85;1.45;;;20.80;57.00;;;;;;6150752;22;87103;-67
2024/02/05 06:13:41;;;;;;;2.97;1.33;;;20.80;57.00;;;;;;6143404;22;88149;-65
2024/02/05 06:16:38;;;;;;;2.03;1.08;;;20.80;57.10;;;;;;6124248;22;87905;-67
2024/02/05 06:19:04;;;;;;;2.70;1.10;;;20.80;57.10;;;;;;6151800;22;86962;-65
2024/02/05 06:21:29;;;;;;;1.30;1.17;;;20.80;57.70;;;;;;6122062;22;88095;-67
2024/02/05 06:23:56;;;;;;;2.20;1.20;;;20.80;57.00;;;;;;6092407;22;87382;-65
2024/02/05 06:26:24;;;;;;;1.80;1.13;;;20.80;57.00;;;;;;6152307;22;86847;-70
2024/02/05 06:28:50;;;;;;;3.53;1.38;;;20.70;56.90;;;;;;6123955;22;87569;-66
2024/02/05 06:31:17;;;;;;;2.42;1.05;;;20.70;56.90;;;;;;6123272;22;89858;-66
2024/02/05 06:33:42;;;;;;;4.05;1.77;;;20.70;56.90;;;;;;6123313;22;90617;-67
2024/02/05 06:36:09;;;;;;;2.92;1.35;;;20.70;56.90;;;;;;6123473;22;88975;-67
2024/02/05 06:38:35;;;;;;;3.42;1.48;;;20.70;56.70;;;;;;6150693;22;87192;-65
2024/02/05 06:41:02;;;;;;;1.50;1.33;;;20.70;56.70;;;;;;6151732;22;87191;-67
2024/02/05 06:46:49;;;;;;;2.30;1.20;;;20.70;57.00;;;;;;6149369;22;89413;-65
2024/02/05 06:49:15;;;;;;;2.13;1.15;;;20.80;57.20;;;;;;6124027;22;87444;-67
2024/02/05 06:51:41;;;;;;;3.40;1.45;;;20.80;57.40;;;;;;6149501;22;86717;-64
2024/02/05 06:54:07;;;;;;;3.05;1.27;;;20.80;57.10;;;;;;6148961;22;87615;-66
2024/02/05 06:56:34;;;;;;;1.95;1.17;;;20.80;56.90;;;;;;6125874;22;87685;-65
2024/02/05 06:59:00;;;;;;;2.92;1.13;;;20.90;56.60;;;;;;6120774;22;88623;-68
2024/02/05 07:01:28;;;;;;;5.05;1.50;;;20.90;56.50;;;;;;6150749;22;86860;-65
2024/02/05 07:03:54;;;;;;;2.65;1.70;;;20.90;56.40;;;;;;6122878;22;87987;-65
2024/02/05 07:06:20;;;;;;;2.42;1.25;;;21.00;56.50;;;;;;6099850;22;88337;-65
2024/02/05 07:08:46;;;;;;;2.10;1.30;;;21.00;56.70;;;;;;6125139;22;87555;-65
2024/02/05 07:11:12;;;;;;;3.67;1.10;;;21.00;56.70;;;;;;6150894;22;87303;-67
2024/02/05 07:13:39;;;;;;;2.17;1.10;;;21.00;56.90;;;;;;6151337;22;88520;-70
2024/02/05 07:16:16;;;;;;;1.35;0.90;;;21.00;56.90;;;;;;6121020;22;88089;-69
2024/02/05 07:18:42;;;;;;;2.75;1.30;;;21.00;57.00;;;;;;6151204;22;87508;-65
2024/02/05 07:21:07;;;;;;;3.55;1.40;;;21.00;57.00;;;;;;6123082;22;87324;-67
2024/02/05 07:23:35;;;;;;;3.63;1.73;;;21.00;57.10;;;;;;6150767;22;88993;-65
2024/02/05 07:26:01;;;;;;;2.03;1.20;;;21.10;56.90;;;;;;6123742;22;89967;-65
2024/02/05 07:28:26;;;;;;;2.60;1.42;;;21.00;57.00;;;;;;6151139;22;87335;-65
2024/02/05 07:30:53;;;;;;;2.83;1.38;;;21.00;57.00;;;;;;6117806;22;87420;-68
2024/02/05 07:33:19;;;;;;;2.53;0.95;;;21.00;57.00;;;;;;6150158;22;87775;-66
2024/02/05 07:35:45;;;;;;;2.60;1.73;;;21.00;57.00;;;;;;6151635;22;87211;-67
2024/02/05 07:38:11;;;;;;;2.10;1.27;;;21.00;57.00;;;;;;6123951;22;87271;-66
2024/02/05 07:40:37;;;;;;;2.22;1.25;;;21.00;57.00;;;;;;6124740;22;87272;-68
2024/02/05 07:43:04;;;;;;;4.05;1.48;;;21.00;57.20;;;;;;6122902;22;88793;-67
2024/02/05 07:45:31;;;;;;;4.25;1.42;;;21.00;57.20;;;;;;6123875;22;87241;-66
2024/02/05 07:47:57;;;;;;;3.92;1.10;;;21.00;57.10;;;;;;6123664;22;88310;-67
2024/02/05 07:50:22;;;;;;;2.70;1.23;;;21.00;57.10;;;;;;6124862;22;87122;-68
2024/02/05 07:52:48;;;;;;;3.25;1.45;;;21.00;57.10;;;;;;6150678;22;88456;-66
2024/02/05 07:55:14;;;;;;;2.72;1.17;;;21.00;56.70;;;;;;6150520;22;87738;-67
2024/02/05 07:57:41;;;;;;;2.30;1.27;;;21.00;56.60;;;;;;6151850;22;87469;-67
2024/02/05 08:00:08;;;;;;;2.22;1.42;;;21.00;56.80;;;;;;6144798;22;87946;-64
2024/02/05 08:02:34;;;;;;;3.60;1.55;;;21.00;56.50;;;;;;6150348;22;88634;-65
2024/02/05 08:05:00;;;;;;;32.45;7.00;;;21.00;56.10;;;;;;6124040;22;87733;-67
2024/02/05 08:07:26;;;;;;;24.30;4.25;;;21.10;56.60;;;;;;6151672;22;87514;-67
2024/02/05 08:09:52;;;;;;;30.75;6.53;;;21.20;56.60;;;;;;6148189;22;87174;-66
2024/02/05 08:12:19;;;;;;;23.77;5.18;;;21.30;57.00;;;;;;6150970;22;88521;-65
2024/02/05 08:14:46;;;;;;;34.97;6.53;;;21.40;56.40;;;;;;6125304;22;89363;-64
2024/02/05 08:17:11;;;;;;;27.55;6.18;;;21.50;56.20;;;;;;6124638;22;87321;-67
2024/02/05 08:19:37;;;;;;;24.52;5.40;;;21.60;56.30;;;;;;6151381;22;87072;-65
2024/02/05 08:22:03;;;;;;;30.85;5.93;;;21.70;56.50;;;;;;6151645;22;88139;-66
2024/02/05 08:24:29;;;;;;;20.83;5.60;;;21.70;56.70;;;;;;6150472;22;87776;-65
2024/02/05 08:26:55;;;;;;;22.20;5.75;;;21.80;56.90;;;;;;6152313;22;86975;-62
2024/02/05 08:29:23;;;;;;;22.20;6.13;;;21.80;57.00;;;;;;6124857;22;88281;-65
2024/02/05 08:31:49;;;;;;;18.80;5.38;;;21.90;57.60;;;;;;6150896;22;87979;-68
2024/02/05 08:34:15;;;;;;;23.92;5.85;;;21.90;57.30;;;;;;6110301;22;87916;-65
2024/02/05 08:36:41;;;;;;;13.10;4.95;;;22.00;57.30;;;;;;6151261;22;87770;-66
2024/02/05 08:39:09;;;;;;;19.52;5.13;;;22.10;57.40;;;;;;6122262;22;87313;-69
2024/02/05 08:41:35;;;;;;;17.77;5.30;;;22.10;57.00;;;;;;6144411;22;88848;-65
2024/02/05 08:44:02;;;;;;;15.60;4.47;;;22.10;57.00;;;;;;6149752;22;87779;-67
2024/02/05 08:46:29;;;;;;;20.88;5.93;;;22.20;57.20;;;;;;6120476;22;88251;-67
2024/02/05 08:48:54;;;;;;;22.90;5.70;;;22.20;57.00;;;;;;6143372;22;87240;-66
2024/02/05 08:51:22;;;;;;;18.98;5.65;;;22.20;57.30;;;;;;6149555;22;88097;-68
2024/02/05 08:53:48;;;;;;;17.08;5.50;;;22.20;57.90;;;;;;6120811;22;87797;-66
2024/02/05 08:56:13;;;;;;;17.15;5.45;;;22.20;57.30;;;;;;6147988;22;86977;-66
2024/02/05 08:58:39;;;;;;;14.32;5.20;;;22.20;57.20;;;;;;6150537;22;87449;-69
2024/02/05 09:01:05;;;;;;;14.90;5.75;;;22.30;57.00;;;;;;6122181;22;90175;-66
2024/02/05 09:03:31;;;;;;;18.63;5.75;;;22.30;57.10;;;;;;6122917;22;88216;-66
2024/02/05 09:05:57;;;;;;;20.80;5.22;;;22.30;57.20;;;;;;6151498;22;86870;-65
2024/02/05 09:08:23;;;;;;;15.98;5.28;;;22.40;57.00;;;;;;6151089;22;87550;-67
2024/02/05 09:10:49;;;;;;;15.82;4.97;;;22.40;56.70;;;;;;6122724;22;88438;-68
2024/02/05 09:13:15;;;;;;;15.57;5.38;;;22.40;55.80;;;;;;6085732;22;88144;-66
2024/02/05 09:15:42;;;;;;;18.00;5.97;;;22.40;56.30;;;;;;6149893;22;87572;-65
2024/02/05 09:18:09;;;;;;;16.65;5.40;;;22.40;56.40;;;;;;6124860;22;86665;-67
2024/02/05 09:20:36;;;;;;;13.95;4.43;;;22.50;56.30;;;;;;6152295;22;88083;-65
2024/02/05 09:23:02;;;;;;;18.02;4.88;;;22.50;56.30;;;;;;6116927;22;88849;-66
2024/02/05 09:25:29;;;;;;;17.27;5.20;;;22.50;56.20;;;;;;6123024;22;88610;-66
2024/02/05 09:27:55;;;;;;;10.45;3.90;;;22.50;56.00;;;;;;6119937;22;89740;-66
2024/02/05 09:30:21;;;;;;;14.15;4.25;;;22.50;56.00;;;;;;6121846;22;88993;-68
2024/02/05 09:32:50;;;;;;;14.63;5.05;;;22.50;56.00;;;;;;6150821;22;87287;-65
2024/02/05 09:35:16;;;;;;;13.20;4.25;;;22.60;56.10;;;;;;6123095;22;87254;-65
2024/02/05 09:37:42;;;;;;;11.15;4.00;;;22.60;56.00;;;;;;6115212;22;88395;-65
2024/02/05 09:40:08;;;;;;;13.88;4.68;;;22.60;57.80;;;;;;6119510;22;88086;-66
2024/02/05 09:42:34;;;;;;;18.40;4.72;;;22.60;57.90;;;;;;6122263;22;88361;-68
2024/02/05 09:45:02;;;;;;;14.20;4.35;;;22.70;57.80;;;;;;6122784;22;87324;-65
2024/02/05 09:47:29;;;;;;;20.45;5.35;;;22.70;57.40;;;;;;6150227;22;87378;-66
2024/02/05 09:49:58;;;;;;;11.80;3.78;;;22.70;57.00;;;;;;6143444;22;89253;-66
2024/02/05 09:52:24;;;;;;;12.23;3.93;;;22.80;56.80;;;;;;6119823;22;89586;-67
2024/02/05 09:54:51;;;;;;;11.35;3.83;;;22.80;56.50;;;;;;6122744;22;87581;-66
2024/02/05 09:57:20;;;;;;;11.68;3.50;;;22.80;56.40;;;;;;6149079;22;87202;-65
2024/02/05 09:59:46;;;;;;;15.43;4.88;;;22.80;56.50;;;;;;6150814;22;88062;-65
2024/02/05 10:02:16;;;;;;;13.65;4.68;;;22.80;56.30;;;;;;6142441;22;88559;-66
2024/02/05 10:04:43;;;;;;;9.82;3.45;;;22.80;55.50;;;;;;6142731;22;86890;-66
2024/02/05 10:07:14;;;;;;;15.40;3.88;;;22.80;54.00;;;;;;6115681;22;87283;-67
2024/02/05 10:09:41;;;;;;;15.38;4.03;;;22.80;53.80;;;;;;6148134;22;88075;-62
2024/02/05 10:12:11;;;;;;;12.30;4.18;;;22.80;53.50;;;;;;6123226;22;88855;-62
2024/02/05 10:14:42;;;;;;;12.00;4.43;;;22.70;53.60;;;;;;6150528;22;89026;-63
2024/02/05 10:17:08;;;;;;;10.25;2.58;;;22.70;53.40;;;;;;6122282;22;87466;-65
2024/02/05 10:19:35;;;;;;;8.55;3.25;;;22.80;53.50;;;;;;6118862;22;87425;-67
2024/02/05 10:22:01;;;;;;;12.23;3.22;;;22.80;53.40;;;;;;6122566;22;90982;-68
2024/02/05 10:24:27;;;;;;;11.85;2.92;;;22.80;53.10;;;;;;6091984;22;87445;-65
2024/02/05 10:26:53;;;;;;;10.95;3.75;;;22.80;52.90;;;;;;6124698;22;87745;-66
2024/02/05 10:29:23;;;;;;;10.57;3.40;;;22.80;52.70;;;;;;6121322;22;88171;-67
2024/02/05 10:31:50;;;;;;;8.95;2.97;;;22.80;52.60;;;;;;6149213;22;88042;-68
2024/02/05 10:34:21;;;;;;;14.32;4.00;;;22.80;52.50;;;;;;6120024;22;87210;-66
2024/02/05 10:36:48;;;;;;;13.55;3.85;;;22.80;52.20;;;;;;6119825;22;88172;-66
2024/02/05 10:39:22;;;;;;;11.73;3.53;;;22.80;52.30;;;;;;6120502;22;89729;-65
2024/02/05 10:41:50;;;;;;;10.70;3.55;;;22.80;52.30;;;;;;6123213;22;90352;-65
2024/02/05 10:44:16;;;;;;;8.15;3.15;;;22.80;52.10;;;;;;6121332;22;87404;-65
2024/02/05 10:46:42;;;;;;;8.77;3.33;;;22.80;52.00;;;;;;6121564;22;87583;-65
2024/02/05 10:49:08;;;;;;;13.15;4.05;;;22.80;52.10;;;;;;6119988;22;88824;-65
2024/02/05 10:51:39;;;;;;;8.80;2.97;;;22.90;51.90;;;;;;6125106;22;87679;-66
2024/02/05 10:54:06;;;;;;;9.40;2.45;;;22.90;52.20;;;;;;6123522;22;90939;-68
2024/02/05 10:56:33;;;;;;;9.93;2.67;;;22.90;52.40;;;;;;6124768;22;87902;-67
2024/02/05 10:58:59;;;;;;;10.95;3.22;;;23.00;52.60;;;;;;6123614;22;88812;-64
2024/02/05 11:01:35;;;;;;;8.90;3.38;;;23.00;52.70;;;;;;6147663;22;88095;-66
2024/02/05 11:04:03;;;;;;;9.15;3.00;;;23.00;52.80;;;;;;6125757;22;87963;-65
2024/02/05 11:06:35;;;;;;;7.65;2.60;;;23.00;52.70;;;;;;6149793;22;86924;-65
2024/02/05 11:09:04;;;;;;;9.48;3.15;;;23.00;52.80;;;;;;6123005;22;90017;-70
2024/02/05 11:11:31;;;;;;;8.02;3.38;;;23.00;52.80;;;;;;6123843;22;88901;-65
2024/02/05 11:14:02;;;;;;;6.22;2.60;;;23.00;52.80;;;;;;6123150;22;87116;-62
2024/02/05 11:16:29;;;;;;;11.63;3.13;;;23.00;52.90;;;;;;6150453;22;87285;-65
2024/02/05 11:18:57;;;;;;;8.10;3.00;;;23.00;53.10;;;;;;6098497;22;89262;-65
2024/02/05 11:21:28;;;;;;;12.33;3.17;;;23.00;53.20;;;;;;6146782;22;86344;-63
2024/02/05 11:23:55;;;;;;;6.68;2.67;;;23.10;53.40;;;;;;6150609;22;86997;-64
2024/02/05 11:26:21;;;;;;;10.05;3.97;;;23.10;53.50;;;;;;6116766;23;90485;-64
2024/02/05 11:28:53;;;;;;;6.22;2.58;;;23.10;53.40;;;;;;6099219;23;88598;-63
2024/02/05 11:31:22;;;;;;;8.18;3.25;;;23.10;53.60;;;;;;6120291;23;88708;-68
2024/02/05 11:34:02;;;;;;;8.77;3.33;;;23.10;53.60;;;;;;6093716;23;87443;-65
2024/02/05 11:36:28;;;;;;;8.32;2.65;;;23.10;53.50;;;;;;6093785;23;88048;-65
2024/02/05 11:39:05;;;;;;;6.88;2.70;;;23.10;53.50;;;;;;6120396;23;89232;-63
2024/02/05 11:41:31;;;;;;;9.70;2.72;;;23.10;53.40;;;;;;6090378;23;95027;-65
2024/02/05 11:44:03;;;;;;;7.20;2.65;;;23.10;53.60;;;;;;6121156;23;87378;-62
2024/02/05 11:46:28;;;;;;;10.27;3.88;;;23.10;53.60;;;;;;6095679;23;86921;-64
2024/02/05 11:48:54;;;;;;;11.80;3.35;;;23.10;53.60;;;;;;6119730;23;87933;-64
2024/02/05 11:51:20;;;;;;;8.00;2.88;;;23.10;53.60;;;;;;6094714;23;88858;-63
2024/02/05 11:53:47;;;;;;;5.90;2.97;;;23.10;53.50;;;;;;6095009;23;88211;-63
2024/02/05 11:56:14;;;;;;;7.85;2.38;;;23.10;53.60;;;;;;6120287;23;88176;-65
2024/02/05 11:58:40;;;;;;;6.45;2.80;;;23.10;53.70;;;;;;6065729;23;87984;-66
2024/02/05 12:01:11;;;;;;;8.38;2.58;;;23.20;51.30;;;;;;6118630;23;88326;-63
2024/02/05 12:03:37;;;;;;;9.10;3.03;;;23.10;51.00;;;;;;6119737;23;86907;-64
2024/02/05 12:06:03;;;;;;;6.45;2.60;;;23.10;51.00;;;;;;6119176;23;87511;-67
2024/02/05 12:08:30;;;;;;;8.75;2.53;;;23.10;50.90;;;;;;6121905;23;87439;-67
2024/02/05 12:10:56;;;;;;;5.70;2.42;;;23.10;50.80;;;;;;6094248;23;88043;-66
2024/02/05 12:13:22;;;;;;;8.13;3.08;;;23.10;50.60;;;;;;6120813;23;87247;-67
2024/02/05 12:15:48;;;;;;;6.55;2.88;;;23.10;50.70;;;;;;6092956;23;87508;-65
2024/02/05 12:18:14;;;;;;;8.98;3.25;;;23.00;50.60;;;;;;6118173;23;88890;-63
2024/02/05 12:20:40;;;;;;;6.00;2.40;;;23.00;50.80;;;;;;6095294;23;90904;-65
2024/02/05 12:23:07;;;;;;;5.47;2.25;;;23.00;50.50;;;;;;6091785;23;86867;-67
2024/02/05 12:25:34;;;;;;;6.07;2.33;;;23.00;50.60;;;;;;6088919;22;87593;-67
2024/02/05 12:28:00;;;;;;;4.45;2.08;;;23.00;50.70;;;;;;6123177;22;88882;-69
2024/02/05 12:30:28;;;;;;;8.02;2.88;;;23.00;50.70;;;;;;6123502;22;87711;-66
2024/02/05 12:32:56;;;;;;;9.35;2.47;;;23.00;50.50;;;;;;6094357;22;88489;-67
2024/02/05 12:35:23;;;;;;;7.35;2.22;;;23.00;50.40;;;;;;6059261;22;91224;-67
2024/02/05 12:37:56;;;;;;;7.55;2.22;;;23.00;50.60;;;;;;6096163;22;89071;-67
2024/02/05 12:40:23;;;;;;;7.40;2.42;;;23.00;50.60;;;;;;6148279;22;86913;-63
2024/02/05 12:42:50;;;;;;;9.57;3.53;;;23.00;50.70;;;;;;6121092;22;88182;-69
2024/02/05 12:45:16;;;;;;;7.13;2.25;;;23.00;50.70;;;;;;6122170;22;87864;-67
2024/02/05 12:47:43;;;;;;;5.88;2.78;;;23.00;50.80;;;;;;6098155;22;88057;-68